createdAt,value
2023-02-13T01:15:50.559Z,7.00
2023-02-13T07:15:09.280Z,16.38
2023-02-13T07:17:36.336Z,15.00
2023-02-13T07:20:04.701Z,15.60
2023-02-13T07:22:33.053Z,18.48
2023-02-13T07:25:01.127Z,15.10
2023-02-13T07:27:29.433Z,22.30
2023-02-13T07:32:25.620Z,21.25
2023-02-13T07:35:01.733Z,18.65
2023-02-13T07:37:31.232Z,22.88
2023-02-13T07:39:58.204Z,23.27
2023-02-13T07:42:25.240Z,19.33
2023-02-13T07:44:52.211Z,18.27
2023-02-13T07:47:20.322Z,20.38
2023-02-13T07:49:47.397Z,23.92
2023-02-13T07:52:14.320Z,21.50
2023-02-13T07:54:47.441Z,27.65
2023-02-13T08:04:38.312Z,27.80
2023-02-13T08:17:11.171Z,27.92
2023-02-13T08:19:38.475Z,31.52
2023-02-13T16:26:25.658Z,42.38
2023-02-13T16:28:52.879Z,37.97
2023-02-13T16:31:21.164Z,35.22
2023-02-13T16:33:48.482Z,36.22
2023-02-13T16:36:15.326Z,33.78
2023-02-13T16:38:43.852Z,36.45
2023-02-13T16:41:19.687Z,35.78
2023-02-13T16:43:51.957Z,35.05
2023-02-13T16:46:28.191Z,31.75
2023-02-13T16:49:00.736Z,41.88
2023-02-13T16:51:30.445Z,32.97
2023-02-13T16:54:03.779Z,35.65
2023-02-13T16:56:56.990Z,40.15
2023-02-13T16:59:26.087Z,39.28
2023-02-13T17:02:18.101Z,35.95
2023-02-13T17:05:07.767Z,41.35
2023-02-13T17:07:39.290Z,43.35
2023-02-13T17:10:17.861Z,38.72
2023-02-13T17:12:45.810Z,38.83
2023-02-13T17:15:14.446Z,38.95
2023-02-13T17:17:41.431Z,41.80
2023-02-13T17:20:15.027Z,39.67
2023-02-13T17:22:45.448Z,40.50
2023-02-13T17:25:25.224Z,52.70
2023-02-13T17:27:55.230Z,45.15
2023-02-13T17:30:25.495Z,48.40
2023-02-13T17:33:07.432Z,44.20
2023-02-13T17:35:35.496Z,47.03
2023-02-13T17:38:02.595Z,42.80
2023-02-13T17:40:31.787Z,43.88
2023-02-13T17:42:59.487Z,51.00
2023-02-13T17:45:29.194Z,45.30
2023-02-13T17:47:59.759Z,46.47
2023-02-13T17:50:28.601Z,46.45
2023-02-13T17:52:56.162Z,42.92
2023-02-13T17:55:26.033Z,46.65
2023-02-13T17:57:54.500Z,44.90
2023-02-13T18:00:22.261Z,46.85
2023-02-13T18:02:50.767Z,48.80
2023-02-13T18:05:19.097Z,42.03
2023-02-13T18:07:47.091Z,50.15
2023-02-13T18:10:15.468Z,51.20
2023-02-13T18:12:43.255Z,48.45
2023-02-13T18:15:11.243Z,46.20
2023-02-13T18:17:38.363Z,38.85
2023-02-13T18:20:07.455Z,45.60
2023-02-13T18:22:34.414Z,46.95
2023-02-13T18:25:01.870Z,43.85
2023-02-13T18:27:29.503Z,48.05
2023-02-13T18:30:03.165Z,41.03
2023-02-13T18:32:30.248Z,45.67
2023-02-13T18:34:57.233Z,44.83
2023-02-13T18:37:24.327Z,51.17
2023-02-13T18:39:51.304Z,43.47
2023-02-13T18:42:18.823Z,48.40
2023-02-13T18:44:45.764Z,55.75
2023-02-13T18:47:12.672Z,42.95
2023-02-13T18:49:39.956Z,46.80
2023-02-13T18:52:06.885Z,49.60
2023-02-13T18:54:33.760Z,51.60
2023-02-13T18:57:00.685Z,49.40
2023-02-13T18:59:27.971Z,46.83
2023-02-13T19:01:54.895Z,47.00
2023-02-13T19:04:21.962Z,45.10
2023-02-13T19:06:49.359Z,49.75
2023-02-13T19:09:16.350Z,48.25
2023-02-13T19:24:04.122Z,45.25
2023-02-13T19:26:31.217Z,45.60
2023-02-13T19:28:58.580Z,46.22
2023-02-13T19:31:28.541Z,43.55
2023-02-13T19:33:55.993Z,50.88
2023-02-13T19:36:25.523Z,40.95
2023-02-13T19:38:57.748Z,50.35
2023-02-13T19:41:25.206Z,49.53
2023-02-13T19:43:53.733Z,47.85
2023-02-13T19:46:26.080Z,43.97
2023-02-13T19:48:53.789Z,48.17
2023-02-13T19:51:25.600Z,44.28
2023-02-13T19:54:01.135Z,50.08
2023-02-13T19:56:30.150Z,51.28
2023-02-13T19:58:57.353Z,49.83
2023-02-13T20:01:25.976Z,47.45
2023-02-13T20:03:53.617Z,46.40
2023-02-13T20:06:30.023Z,47.33
2023-02-13T20:08:59.913Z,48.03
2023-02-13T20:11:26.932Z,39.75
2023-02-13T20:13:59.707Z,50.55
2023-02-13T20:16:27.431Z,46.03
2023-02-13T20:18:54.582Z,50.85
2023-02-13T20:21:21.699Z,53.58
2023-02-13T20:23:51.237Z,46.33
2023-02-13T20:26:19.198Z,49.00
2023-02-13T20:28:46.769Z,57.42
2023-02-13T20:31:17.348Z,42.08
2023-02-13T20:33:46.566Z,48.03
2023-02-13T20:36:13.468Z,45.15
2023-02-13T20:38:40.957Z,44.10
2023-02-13T20:41:12.650Z,40.92
2023-02-13T20:43:39.661Z,41.72
2023-02-13T20:46:07.622Z,48.58
2023-02-13T20:51:04.842Z,45.75
2023-02-13T20:53:32.411Z,46.60
2023-02-13T20:56:08.175Z,36.72
2023-02-13T20:58:35.201Z,44.05
2023-02-13T21:01:03.108Z,49.53
2023-02-13T21:03:30.447Z,47.90
2023-02-13T21:05:57.553Z,46.23
2023-02-13T21:08:24.540Z,44.90
2023-02-13T21:10:52.284Z,43.55
2023-02-13T21:13:19.219Z,43.30
2023-02-13T21:18:16.160Z,41.90
2023-02-13T21:20:43.060Z,45.67
2023-02-13T21:23:09.999Z,46.38
2023-02-13T21:25:36.908Z,40.97
2023-02-13T21:28:03.958Z,41.50
2023-02-13T21:30:30.908Z,39.28
2023-02-13T21:32:57.904Z,44.65
2023-02-13T21:35:24.994Z,42.42
2023-02-13T21:37:52.008Z,41.95
2023-02-13T21:40:20.065Z,47.08
2023-02-13T21:42:46.960Z,55.38
2023-02-13T21:45:14.742Z,46.13
2023-02-13T21:47:41.619Z,37.22
2023-02-13T21:50:08.895Z,39.90
2023-02-13T21:52:35.935Z,44.22
2023-02-13T21:55:03.651Z,41.00
2023-02-13T21:57:30.902Z,45.28
2023-02-13T21:59:57.829Z,39.30
2023-02-13T22:02:26.995Z,45.65
2023-02-13T22:04:53.945Z,38.38
2023-02-13T22:07:20.876Z,49.13
2023-02-13T22:09:50.081Z,40.58
2023-02-13T22:12:16.977Z,42.25
2023-02-13T22:14:43.906Z,42.25
2023-02-13T22:17:10.920Z,35.53
2023-02-13T22:19:37.817Z,44.83
2023-02-13T22:22:04.753Z,41.35
2023-02-13T22:24:32.778Z,39.00
2023-02-13T22:26:59.755Z,33.38
2023-02-13T22:29:27.169Z,37.15
2023-02-13T22:31:54.167Z,34.53
2023-02-13T22:34:21.206Z,35.50
2023-02-13T22:36:48.159Z,41.40
2023-02-13T22:39:15.055Z,37.08
2023-02-13T22:41:44.468Z,38.08
2023-02-13T22:44:11.429Z,40.58
2023-02-13T22:46:38.551Z,37.97
2023-02-13T22:49:05.524Z,44.58
2023-02-13T22:51:35.305Z,39.20
2023-02-13T22:54:03.336Z,35.05
2023-02-13T22:56:31.283Z,34.15
2023-02-13T22:58:58.534Z,36.55
2023-02-13T23:01:26.801Z,36.08
2023-02-13T23:03:54.562Z,37.28
2023-02-13T23:06:21.951Z,37.47
2023-02-13T23:08:52.473Z,47.65
2023-02-13T23:11:40.313Z,37.00
2023-02-13T23:14:07.410Z,39.42
2023-02-13T23:16:54.293Z,36.65
2023-02-13T23:19:21.643Z,35.97
2023-02-13T23:21:48.972Z,33.58
2023-02-13T23:24:16.022Z,36.67
2023-02-13T23:26:42.931Z,37.08
2023-02-13T23:29:09.903Z,33.05
2023-02-13T23:31:36.960Z,31.63
2023-02-13T23:34:04.060Z,36.17
2023-02-13T23:36:30.986Z,30.25
2023-02-13T23:38:57.917Z,31.40
2023-02-13T23:41:24.916Z,33.25
2023-02-13T23:43:51.834Z,31.45
2023-02-13T23:46:18.841Z,29.40
2023-02-13T23:48:46.293Z,31.05
2023-02-13T23:51:13.492Z,32.45
2023-02-13T23:53:40.454Z,41.10
2023-02-13T23:56:07.743Z,44.08
2023-02-13T23:58:35.012Z,36.95
